Terminal Aerodrome Forecast
Issued by NWS

Home | Current Version | Previous Version | Text Only | Print | Product List | Glossary On
Versions: 1 2 3 4 5 6 7 8 9 10 11 12 13 14 15
038
FTUS42 KMLB 061735
TAFSUA
TAF
KSUA 061735Z 0618/0718 06008KT P6SM VCSH SCT050 BKN070
      TEMPO 0620/0621 -RA BKN040
     FM062100 08008KT P6SM VCSH SCT025 BKN035
      TEMPO 0621/0624 4SM SHRA BKN025
     FM070000 31008KT P6SM BKN020
      TEMPO 0700/0703 2SM +SHRA BKN012
     FM070300 30012G20KT P6SM VCSH BKN010
      TEMPO 0703/0706 3SM SHRA BKN008
     FM070800 30015G24KT P6SM BKN010
     FM071300 30016G27KT P6SM BKN015=

USA.gov is the U.S. government's official web portal to all federal, state and local government web resources and services.